sensor_id;sensor_type;location;lat;lon;timestamp;P1;durP1;ratioP1;P2;durP2;ratioP2
71104;SDS011;58760;48.716;8.962;2023-11-19T00:02:16;5.45;;;2.67;;
71104;SDS011;58760;48.716;8.962;2023-11-19T00:04:41;6.50;;;2.33;;
71104;SDS011;58760;48.716;8.962;2023-11-19T00:07:07;7.20;;;2.33;;
71104;SDS011;58760;48.716;8.962;2023-11-19T00:09:33;6.28;;;1.83;;
71104;SDS011;58760;48.716;8.962;2023-11-19T00:11:59;5.15;;;2.00;;
71104;SDS011;58760;48.716;8.962;2023-11-19T00:14:25;6.15;;;1.77;;
71104;SDS011;58760;48.716;8.962;2023-11-19T00:16:51;4.65;;;1.90;;
71104;SDS011;58760;48.716;8.962;2023-11-19T00:19:17;4.63;;;1.85;;
71104;SDS011;58760;48.716;8.962;2023-11-19T00:21:42;4.97;;;1.88;;
71104;SDS011;58760;48.716;8.962;2023-11-19T00:24:08;4.25;;;1.83;;
71104;SDS011;58760;48.716;8.962;2023-11-19T00:26:33;4.80;;;1.95;;
71104;SDS011;58760;48.716;8.962;2023-11-19T00:28:59;4.82;;;2.00;;
71104;SDS011;58760;48.716;8.962;2023-11-19T00:31:24;4.72;;;1.92;;
71104;SDS011;58760;48.716;8.962;2023-11-19T00:33:53;4.80;;;2.20;;
71104;SDS011;58760;48.716;8.962;2023-11-19T00:36:18;10.63;;;2.47;;
71104;SDS011;58760;48.716;8.962;2023-11-19T00:38:44;4.47;;;2.00;;
71104;SDS011;58760;48.716;8.962;2023-11-19T00:41:09;5.30;;;1.80;;
71104;SDS011;58760;48.716;8.962;2023-11-19T00:43:35;3.97;;;1.58;;
71104;SDS011;58760;48.716;8.962;2023-11-19T00:46:01;5.65;;;1.67;;
71104;SDS011;58760;48.716;8.962;2023-11-19T00:48:27;3.78;;;1.50;;
71104;SDS011;58760;48.716;8.962;2023-11-19T00:50:53;6.80;;;1.63;;
71104;SDS011;58760;48.716;8.962;2023-11-19T00:53:19;3.33;;;1.40;;
71104;SDS011;58760;48.716;8.962;2023-11-19T00:55:44;2.63;;;1.20;;
71104;SDS011;58760;48.716;8.962;2023-11-19T00:58:09;2.42;;;1.20;;
71104;SDS011;58760;48.716;8.962;2023-11-19T01:00:35;2.25;;;1.20;;
71104;SDS011;58760;48.716;8.962;2023-11-19T01:03:00;3.05;;;1.40;;
71104;SDS011;58760;48.716;8.962;2023-11-19T01:05:25;4.20;;;1.50;;
71104;SDS011;58760;48.716;8.962;2023-11-19T01:07:51;3.45;;;1.40;;
71104;SDS011;58760;48.716;8.962;2023-11-19T01:10:18;6.03;;;1.50;;
71104;SDS011;58760;48.716;8.962;2023-11-19T01:12:44;4.88;;;1.50;;
71104;SDS011;58760;48.716;8.962;2023-11-19T01:15:09;3.28;;;1.33;;
71104;SDS011;58760;48.716;8.962;2023-11-19T01:17:36;3.65;;;1.40;;
71104;SDS011;58760;48.716;8.962;2023-11-19T01:20:03;3.17;;;1.20;;
71104;SDS011;58760;48.716;8.962;2023-11-19T01:22:31;2.40;;;0.88;;
71104;SDS011;58760;48.716;8.962;2023-11-19T01:24:56;1.90;;;1.00;;
71104;SDS011;58760;48.716;8.962;2023-11-19T01:27:23;2.88;;;1.10;;
71104;SDS011;58760;48.716;8.962;2023-11-19T01:29:49;3.42;;;1.20;;
71104;SDS011;58760;48.716;8.962;2023-11-19T01:32:14;1.70;;;0.75;;
71104;SDS011;58760;48.716;8.962;2023-11-19T01:34:40;2.88;;;1.10;;
71104;SDS011;58760;48.716;8.962;2023-11-19T01:37:06;1.98;;;0.90;;
71104;SDS011;58760;48.716;8.962;2023-11-19T01:39:34;1.63;;;0.90;;
71104;SDS011;58760;48.716;8.962;2023-11-19T01:41:59;2.85;;;0.98;;
71104;SDS011;58760;48.716;8.962;2023-11-19T01:44:25;2.97;;;1.02;;
71104;SDS011;58760;48.716;8.962;2023-11-19T01:46:50;3.28;;;0.90;;
71104;SDS011;58760;48.716;8.962;2023-11-19T01:49:16;0.98;;;0.70;;
71104;SDS011;58760;48.716;8.962;2023-11-19T01:51:43;1.73;;;0.90;;
71104;SDS011;58760;48.716;8.962;2023-11-19T01:54:09;2.78;;;0.85;;
71104;SDS011;58760;48.716;8.962;2023-11-19T01:56:35;0.70;;;0.50;;
71104;SDS011;58760;48.716;8.962;2023-11-19T01:59:05;0.88;;;0.52;;
71104;SDS011;58760;48.716;8.962;2023-11-19T02:03:59;0.80;;;0.20;;
71104;SDS011;58760;48.716;8.962;2023-11-19T02:06:26;0.20;;;0.20;;
71104;SDS011;58760;48.716;8.962;2023-11-19T02:11:18;0.43;;;0.28;;
71104;SDS011;58760;48.716;8.962;2023-11-19T02:13:44;0.90;;;0.38;;
71104;SDS011;58760;48.716;8.962;2023-11-19T02:16:09;0.70;;;0.10;;
71104;SDS011;58760;48.716;8.962;2023-11-19T02:21:01;0.00;;;0.00;;
71104;SDS011;58760;48.716;8.962;2023-11-19T02:23:27;0.43;;;0.10;;
71104;SDS011;58760;48.716;8.962;2023-11-19T02:26:02;0.00;;;0.00;;
71104;SDS011;58760;48.716;8.962;2023-11-19T02:28:31;0.98;;;0.15;;
71104;SDS011;58760;48.716;8.962;2023-11-19T02:30:58;0.90;;;0.20;;
71104;SDS011;58760;48.716;8.962;2023-11-19T02:33:24;0.98;;;0.10;;
71104;SDS011;58760;48.716;8.962;2023-11-19T02:35:50;0.63;;;0.20;;
71104;SDS011;58760;48.716;8.962;2023-11-19T02:38:16;0.10;;;0.10;;
71104;SDS011;58760;48.716;8.962;2023-11-19T02:40:42;0.28;;;0.00;;
71104;SDS011;58760;48.716;8.962;2023-11-19T02:43:07;0.13;;;0.00;;
71104;SDS011;58760;48.716;8.962;2023-11-19T02:45:33;0.45;;;0.13;;
71104;SDS011;58760;48.716;8.962;2023-11-19T02:47:59;0.00;;;0.00;;
71104;SDS011;58760;48.716;8.962;2023-11-19T02:50:28;0.17;;;0.13;;
71104;SDS011;58760;48.716;8.962;2023-11-19T02:52:54;0.77;;;0.20;;
71104;SDS011;58760;48.716;8.962;2023-11-19T02:55:21;0.05;;;0.05;;
71104;SDS011;58760;48.716;8.962;2023-11-19T02:57:48;1.80;;;0.30;;
71104;SDS011;58760;48.716;8.962;2023-11-19T03:00:18;0.77;;;0.40;;
71104;SDS011;58760;48.716;8.962;2023-11-19T03:02:49;0.43;;;0.20;;
71104;SDS011;58760;48.716;8.962;2023-11-19T03:05:24;0.10;;;0.10;;
71104;SDS011;58760;48.716;8.962;2023-11-19T03:07:50;1.23;;;0.20;;
71104;SDS011;58760;48.716;8.962;2023-11-19T03:10:16;0.28;;;0.20;;
71104;SDS011;58760;48.716;8.962;2023-11-19T03:12:43;0.60;;;0.10;;
71104;SDS011;58760;48.716;8.962;2023-11-19T03:15:10;1.27;;;0.25;;
71104;SDS011;58760;48.716;8.962;2023-11-19T03:17:40;0.20;;;0.10;;
71104;SDS011;58760;48.716;8.962;2023-11-19T03:20:07;0.30;;;0.20;;
71104;SDS011;58760;48.716;8.962;2023-11-19T03:22:39;0.45;;;0.10;;
71104;SDS011;58760;48.716;8.962;2023-11-19T03:25:06;1.08;;;0.20;;
71104;SDS011;58760;48.716;8.962;2023-11-19T03:30:01;0.10;;;0.00;;
71104;SDS011;58760;48.716;8.962;2023-11-19T03:32:28;2.10;;;0.30;;
71104;SDS011;58760;48.716;8.962;2023-11-19T03:34:54;2.63;;;0.32;;
71104;SDS011;58760;48.716;8.962;2023-11-19T03:39:46;0.30;;;0.10;;
71104;SDS011;58760;48.716;8.962;2023-11-19T03:42:12;0.20;;;0.17;;
71104;SDS011;58760;48.716;8.962;2023-11-19T03:44:38;0.10;;;0.10;;
71104;SDS011;58760;48.716;8.962;2023-11-19T03:47:04;0.30;;;0.20;;
71104;SDS011;58760;48.716;8.962;2023-11-19T03:49:30;0.80;;;0.20;;
71104;SDS011;58760;48.716;8.962;2023-11-19T03:51:55;2.20;;;0.05;;
71104;SDS011;58760;48.716;8.962;2023-11-19T03:54:21;0.10;;;0.10;;
71104;SDS011;58760;48.716;8.962;2023-11-19T03:56:48;0.10;;;0.10;;
71104;SDS011;58760;48.716;8.962;2023-11-19T03:59:13;0.32;;;0.10;;
71104;SDS011;58760;48.716;8.962;2023-11-19T04:01:40;0.22;;;0.10;;
71104;SDS011;58760;48.716;8.962;2023-11-19T04:04:06;0.22;;;0.10;;
71104;SDS011;58760;48.716;8.962;2023-11-19T04:06:31;0.38;;;0.08;;
71104;SDS011;58760;48.716;8.962;2023-11-19T04:08:57;0.63;;;0.25;;
71104;SDS011;58760;48.716;8.962;2023-11-19T04:11:22;0.10;;;0.10;;
71104;SDS011;58760;48.716;8.962;2023-11-19T04:13:48;0.38;;;0.10;;
71104;SDS011;58760;48.716;8.962;2023-11-19T04:16:13;0.00;;;0.00;;
71104;SDS011;58760;48.716;8.962;2023-11-19T04:18:40;0.45;;;0.25;;
71104;SDS011;58760;48.716;8.962;2023-11-19T04:21:06;0.28;;;0.08;;
71104;SDS011;58760;48.716;8.962;2023-11-19T04:23:32;0.10;;;0.10;;
71104;SDS011;58760;48.716;8.962;2023-11-19T04:25:58;0.35;;;0.05;;
71104;SDS011;58760;48.716;8.962;2023-11-19T04:28:23;0.13;;;0.13;;
71104;SDS011;58760;48.716;8.962;2023-11-19T04:30:52;0.13;;;0.00;;
71104;SDS011;58760;48.716;8.962;2023-11-19T04:33:17;0.05;;;0.05;;
71104;SDS011;58760;48.716;8.962;2023-11-19T04:35:43;0.32;;;0.10;;
71104;SDS011;58760;48.716;8.962;2023-11-19T04:38:08;0.57;;;0.08;;
71104;SDS011;58760;48.716;8.962;2023-11-19T04:40:34;0.10;;;0.05;;
71104;SDS011;58760;48.716;8.962;2023-11-19T04:42:59;0.70;;;0.10;;
71104;SDS011;58760;48.716;8.962;2023-11-19T04:45:24;0.43;;;0.20;;
71104;SDS011;58760;48.716;8.962;2023-11-19T04:47:50;0.03;;;0.03;;
71104;SDS011;58760;48.716;8.962;2023-11-19T04:50:15;0.00;;;0.00;;
71104;SDS011;58760;48.716;8.962;2023-11-19T04:52:41;0.10;;;0.05;;
71104;SDS011;58760;48.716;8.962;2023-11-19T04:55:10;0.95;;;0.17;;
71104;SDS011;58760;48.716;8.962;2023-11-19T04:57:36;0.30;;;0.15;;
71104;SDS011;58760;48.716;8.962;2023-11-19T05:00:02;1.17;;;0.10;;
71104;SDS011;58760;48.716;8.962;2023-11-19T05:02:30;0.00;;;0.00;;
71104;SDS011;58760;48.716;8.962;2023-11-19T05:04:55;0.40;;;0.10;;
71104;SDS011;58760;48.716;8.962;2023-11-19T05:07:20;0.00;;;0.00;;
71104;SDS011;58760;48.716;8.962;2023-11-19T05:09:46;0.25;;;0.00;;
71104;SDS011;58760;48.716;8.962;2023-11-19T05:12:11;0.10;;;0.10;;
71104;SDS011;58760;48.716;8.962;2023-11-19T05:14:37;0.15;;;0.15;;
71104;SDS011;58760;48.716;8.962;2023-11-19T05:17:03;0.10;;;0.10;;
71104;SDS011;58760;48.716;8.962;2023-11-19T05:19:28;0.55;;;0.20;;
71104;SDS011;58760;48.716;8.962;2023-11-19T05:21:54;0.65;;;0.10;;
71104;SDS011;58760;48.716;8.962;2023-11-19T05:24:19;1.52;;;0.13;;
71104;SDS011;58760;48.716;8.962;2023-11-19T05:26:45;0.20;;;0.10;;
71104;SDS011;58760;48.716;8.962;2023-11-19T05:29:10;0.55;;;0.20;;
71104;SDS011;58760;48.716;8.962;2023-11-19T05:31:35;0.17;;;0.10;;
71104;SDS011;58760;48.716;8.962;2023-11-19T05:34:01;2.70;;;0.20;;
71104;SDS011;58760;48.716;8.962;2023-11-19T05:36:26;0.90;;;0.20;;
71104;SDS011;58760;48.716;8.962;2023-11-19T05:38:52;0.10;;;0.10;;
71104;SDS011;58760;48.716;8.962;2023-11-19T05:41:18;0.47;;;0.20;;
71104;SDS011;58760;48.716;8.962;2023-11-19T05:43:43;0.35;;;0.30;;
71104;SDS011;58760;48.716;8.962;2023-11-19T05:46:12;0.65;;;0.10;;
71104;SDS011;58760;48.716;8.962;2023-11-19T05:48:38;0.20;;;0.20;;
71104;SDS011;58760;48.716;8.962;2023-11-19T05:51:04;0.63;;;0.20;;
71104;SDS011;58760;48.716;8.962;2023-11-19T05:53:30;0.05;;;0.05;;
71104;SDS011;58760;48.716;8.962;2023-11-19T05:55:56;1.30;;;0.20;;
71104;SDS011;58760;48.716;8.962;2023-11-19T05:58:23;0.10;;;0.10;;
71104;SDS011;58760;48.716;8.962;2023-11-19T06:00:50;1.08;;;0.28;;
71104;SDS011;58760;48.716;8.962;2023-11-19T06:03:16;0.20;;;0.20;;
71104;SDS011;58760;48.716;8.962;2023-11-19T06:05:44;0.10;;;0.05;;
71104;SDS011;58760;48.716;8.962;2023-11-19T06:08:09;0.08;;;0.00;;
71104;SDS011;58760;48.716;8.962;2023-11-19T06:10:35;0.68;;;0.30;;
71104;SDS011;58760;48.716;8.962;2023-11-19T06:13:00;0.52;;;0.32;;
71104;SDS011;58760;48.716;8.962;2023-11-19T06:15:30;39.78;;;1.52;;
71104;SDS011;58760;48.716;8.962;2023-11-19T06:17:55;0.75;;;0.30;;
71104;SDS011;58760;48.716;8.962;2023-11-19T06:20:23;0.70;;;0.28;;
71104;SDS011;58760;48.716;8.962;2023-11-19T06:22:48;0.40;;;0.20;;
71104;SDS011;58760;48.716;8.962;2023-11-19T06:25:15;0.20;;;0.20;;
71104;SDS011;58760;48.716;8.962;2023-11-19T06:27:41;0.98;;;0.45;;
71104;SDS011;58760;48.716;8.962;2023-11-19T06:30:07;1.10;;;0.20;;
71104;SDS011;58760;48.716;8.962;2023-11-19T06:32:34;0.47;;;0.25;;
71104;SDS011;58760;48.716;8.962;2023-11-19T06:34:59;0.47;;;0.30;;
71104;SDS011;58760;48.716;8.962;2023-11-19T06:37:24;0.38;;;0.28;;
71104;SDS011;58760;48.716;8.962;2023-11-19T06:39:50;1.52;;;0.65;;
71104;SDS011;58760;48.716;8.962;2023-11-19T06:42:15;0.93;;;0.40;;
71104;SDS011;58760;48.716;8.962;2023-11-19T06:44:41;0.43;;;0.30;;
71104;SDS011;58760;48.716;8.962;2023-11-19T06:47:06;0.30;;;0.30;;
71104;SDS011;58760;48.716;8.962;2023-11-19T06:49:32;1.40;;;0.50;;
71104;SDS011;58760;48.716;8.962;2023-11-19T06:51:58;1.20;;;0.40;;
71104;SDS011;58760;48.716;8.962;2023-11-19T06:54:23;0.88;;;0.40;;
71104;SDS011;58760;48.716;8.962;2023-11-19T06:56:49;0.65;;;0.50;;
71104;SDS011;58760;48.716;8.962;2023-11-19T06:59:14;0.57;;;0.40;;
71104;SDS011;58760;48.716;8.962;2023-11-19T07:01:40;0.35;;;0.35;;
71104;SDS011;58760;48.716;8.962;2023-11-19T07:04:12;0.77;;;0.38;;
71104;SDS011;58760;48.716;8.962;2023-11-19T07:06:37;2.22;;;0.80;;
71104;SDS011;58760;48.716;8.962;2023-11-19T07:09:06;0.80;;;0.50;;
71104;SDS011;58760;48.716;8.962;2023-11-19T07:11:35;2.47;;;0.52;;
71104;SDS011;58760;48.716;8.962;2023-11-19T07:14:02;1.67;;;0.55;;
71104;SDS011;58760;48.716;8.962;2023-11-19T07:16:28;2.13;;;0.73;;
71104;SDS011;58760;48.716;8.962;2023-11-19T07:18:53;2.58;;;0.60;;
71104;SDS011;58760;48.716;8.962;2023-11-19T07:21:19;1.30;;;0.50;;
71104;SDS011;58760;48.716;8.962;2023-11-19T07:23:45;3.72;;;0.50;;
71104;SDS011;58760;48.716;8.962;2023-11-19T07:28:41;1.23;;;0.47;;
71104;SDS011;58760;48.716;8.962;2023-11-19T07:31:09;1.13;;;0.60;;
71104;SDS011;58760;48.716;8.962;2023-11-19T07:33:35;0.57;;;0.57;;
71104;SDS011;58760;48.716;8.962;2023-11-19T07:36:00;0.60;;;0.40;;
71104;SDS011;58760;48.716;8.962;2023-11-19T07:38:26;1.38;;;0.47;;
71104;SDS011;58760;48.716;8.962;2023-11-19T07:40:52;0.80;;;0.57;;
71104;SDS011;58760;48.716;8.962;2023-11-19T07:43:17;2.13;;;0.60;;
71104;SDS011;58760;48.716;8.962;2023-11-19T07:45:43;2.03;;;0.60;;
71104;SDS011;58760;48.716;8.962;2023-11-19T07:48:10;1.27;;;0.77;;
71104;SDS011;58760;48.716;8.962;2023-11-19T07:50:38;1.40;;;0.52;;
71104;SDS011;58760;48.716;8.962;2023-11-19T07:53:03;1.45;;;0.80;;
71104;SDS011;58760;48.716;8.962;2023-11-19T07:55:29;2.30;;;0.68;;
71104;SDS011;58760;48.716;8.962;2023-11-19T07:57:55;0.65;;;0.35;;
71104;SDS011;58760;48.716;8.962;2023-11-19T08:00:21;0.93;;;0.60;;
71104;SDS011;58760;48.716;8.962;2023-11-19T08:02:46;0.90;;;0.35;;
71104;SDS011;58760;48.716;8.962;2023-11-19T08:05:12;2.22;;;0.52;;
71104;SDS011;58760;48.716;8.962;2023-11-19T08:07:37;3.85;;;0.80;;
71104;SDS011;58760;48.716;8.962;2023-11-19T08:10:04;1.60;;;0.73;;
71104;SDS011;58760;48.716;8.962;2023-11-19T08:12:30;2.38;;;0.63;;
71104;SDS011;58760;48.716;8.962;2023-11-19T08:14:56;0.90;;;0.60;;
71104;SDS011;58760;48.716;8.962;2023-11-19T08:17:23;0.50;;;0.50;;
71104;SDS011;58760;48.716;8.962;2023-11-19T08:19:52;0.80;;;0.60;;
71104;SDS011;58760;48.716;8.962;2023-11-19T08:22:18;1.85;;;0.63;;
71104;SDS011;58760;48.716;8.962;2023-11-19T08:24:43;2.50;;;0.73;;
71104;SDS011;58760;48.716;8.962;2023-11-19T08:27:09;0.88;;;0.52;;
71104;SDS011;58760;48.716;8.962;2023-11-19T08:29:34;0.90;;;0.50;;
71104;SDS011;58760;48.716;8.962;2023-11-19T08:32:00;1.98;;;0.80;;
71104;SDS011;58760;48.716;8.962;2023-11-19T08:34:28;1.40;;;0.60;;
71104;SDS011;58760;48.716;8.962;2023-11-19T08:36:54;1.85;;;0.57;;
71104;SDS011;58760;48.716;8.962;2023-11-19T08:39:23;1.20;;;0.50;;
71104;SDS011;58760;48.716;8.962;2023-11-19T08:41:49;2.08;;;0.50;;
71104;SDS011;58760;48.716;8.962;2023-11-19T08:44:15;2.15;;;0.55;;
71104;SDS011;58760;48.716;8.962;2023-11-19T08:46:50;0.70;;;0.50;;
71104;SDS011;58760;48.716;8.962;2023-11-19T08:49:16;1.38;;;0.60;;
71104;SDS011;58760;48.716;8.962;2023-11-19T08:51:42;1.15;;;0.55;;
71104;SDS011;58760;48.716;8.962;2023-11-19T08:54:08;0.38;;;0.38;;
71104;SDS011;58760;48.716;8.962;2023-11-19T08:56:34;2.08;;;0.70;;
71104;SDS011;58760;48.716;8.962;2023-11-19T08:59:00;2.05;;;0.50;;
71104;SDS011;58760;48.716;8.962;2023-11-19T09:01:26;2.45;;;0.77;;
71104;SDS011;58760;48.716;8.962;2023-11-19T09:03:52;0.50;;;0.50;;
71104;SDS011;58760;48.716;8.962;2023-11-19T09:06:17;2.33;;;0.90;;
71104;SDS011;58760;48.716;8.962;2023-11-19T09:08:43;2.20;;;0.90;;
71104;SDS011;58760;48.716;8.962;2023-11-19T09:11:09;3.63;;;1.10;;
71104;SDS011;58760;48.716;8.962;2023-11-19T09:13:35;1.80;;;0.85;;
71104;SDS011;58760;48.716;8.962;2023-11-19T09:16:00;2.25;;;0.77;;
71104;SDS011;58760;48.716;8.962;2023-11-19T09:18:29;1.38;;;0.60;;
71104;SDS011;58760;48.716;8.962;2023-11-19T09:20:55;1.40;;;0.60;;
71104;SDS011;58760;48.716;8.962;2023-11-19T09:23:20;2.10;;;0.70;;
71104;SDS011;58760;48.716;8.962;2023-11-19T09:25:46;2.95;;;0.95;;
71104;SDS011;58760;48.716;8.962;2023-11-19T09:28:11;2.45;;;0.80;;
71104;SDS011;58760;48.716;8.962;2023-11-19T09:30:38;2.33;;;0.80;;
71104;SDS011;58760;48.716;8.962;2023-11-19T09:33:03;3.30;;;0.80;;
71104;SDS011;58760;48.716;8.962;2023-11-19T09:35:29;2.20;;;0.88;;
71104;SDS011;58760;48.716;8.962;2023-11-19T09:37:54;1.48;;;0.70;;
71104;SDS011;58760;48.716;8.962;2023-11-19T09:40:19;1.55;;;0.50;;
71104;SDS011;58760;48.716;8.962;2023-11-19T09:42:47;2.22;;;0.70;;
71104;SDS011;58760;48.716;8.962;2023-11-19T09:45:14;0.40;;;0.40;;
71104;SDS011;58760;48.716;8.962;2023-11-19T09:47:43;1.55;;;0.40;;
71104;SDS011;58760;48.716;8.962;2023-11-19T09:50:11;1.45;;;0.40;;
71104;SDS011;58760;48.716;8.962;2023-11-19T09:52:46;2.00;;;0.50;;
71104;SDS011;58760;48.716;8.962;2023-11-19T09:55:12;0.98;;;0.40;;
71104;SDS011;58760;48.716;8.962;2023-11-19T09:57:39;2.58;;;0.60;;
71104;SDS011;58760;48.716;8.962;2023-11-19T10:00:07;3.63;;;0.47;;
71104;SDS011;58760;48.716;8.962;2023-11-19T10:02:37;1.70;;;0.50;;
71104;SDS011;58760;48.716;8.962;2023-11-19T10:05:05;1.20;;;0.50;;
71104;SDS011;58760;48.716;8.962;2023-11-19T10:07:35;0.80;;;0.38;;
71104;SDS011;58760;48.716;8.962;2023-11-19T10:10:01;0.43;;;0.32;;
71104;SDS011;58760;48.716;8.962;2023-11-19T10:12:29;1.70;;;0.40;;
71104;SDS011;58760;48.716;8.962;2023-11-19T10:14:56;1.13;;;0.40;;
71104;SDS011;58760;48.716;8.962;2023-11-19T10:17:27;1.80;;;0.50;;
71104;SDS011;58760;48.716;8.962;2023-11-19T10:20:01;1.13;;;0.25;;
71104;SDS011;58760;48.716;8.962;2023-11-19T10:22:28;0.43;;;0.30;;
71104;SDS011;58760;48.716;8.962;2023-11-19T10:24:54;1.55;;;0.40;;
71104;SDS011;58760;48.716;8.962;2023-11-19T10:27:19;2.45;;;0.47;;
71104;SDS011;58760;48.716;8.962;2023-11-19T10:29:48;1.65;;;0.45;;
71104;SDS011;58760;48.716;8.962;2023-11-19T10:32:14;2.45;;;0.60;;
71104;SDS011;58760;48.716;8.962;2023-11-19T10:34:42;0.88;;;0.22;;
71104;SDS011;58760;48.716;8.962;2023-11-19T10:37:08;0.17;;;0.10;;
71104;SDS011;58760;48.716;8.962;2023-11-19T10:39:54;2.55;;;0.30;;
71104;SDS011;58760;48.716;8.962;2023-11-19T10:42:20;1.77;;;0.40;;
71104;SDS011;58760;48.716;8.962;2023-11-19T10:44:46;1.10;;;0.28;;
71104;SDS011;58760;48.716;8.962;2023-11-19T10:47:13;1.50;;;0.22;;
71104;SDS011;58760;48.716;8.962;2023-11-19T10:49:40;1.25;;;0.30;;
71104;SDS011;58760;48.716;8.962;2023-11-19T10:52:07;1.60;;;0.30;;
71104;SDS011;58760;48.716;8.962;2023-11-19T10:54:34;2.13;;;0.60;;
71104;SDS011;58760;48.716;8.962;2023-11-19T10:59:30;1.27;;;0.35;;
71104;SDS011;58760;48.716;8.962;2023-11-19T11:02:00;1.13;;;0.35;;
71104;SDS011;58760;48.716;8.962;2023-11-19T11:04:32;2.50;;;0.60;;
71104;SDS011;58760;48.716;8.962;2023-11-19T11:07:06;0.85;;;0.30;;
71104;SDS011;58760;48.716;8.962;2023-11-19T11:09:34;0.50;;;0.40;;
71104;SDS011;58760;48.716;8.962;2023-11-19T11:12:04;0.98;;;0.47;;
71104;SDS011;58760;48.716;8.962;2023-11-19T11:14:31;1.65;;;0.70;;
71104;SDS011;58760;48.716;8.962;2023-11-19T11:17:00;2.90;;;0.55;;
71104;SDS011;58760;48.716;8.962;2023-11-19T11:19:31;3.13;;;0.50;;
71104;SDS011;58760;48.716;8.962;2023-11-19T11:21:56;0.95;;;0.32;;
71104;SDS011;58760;48.716;8.962;2023-11-19T11:30:35;1.25;;;0.50;;
71104;SDS011;58760;48.716;8.962;2023-11-19T11:36:10;2.88;;;0.68;;
71104;SDS011;58760;48.716;8.962;2023-11-19T11:38:43;3.55;;;0.80;;
71104;SDS011;58760;48.716;8.962;2023-11-19T11:41:21;2.13;;;0.40;;
71104;SDS011;58760;48.716;8.962;2023-11-19T11:43:51;4.18;;;0.70;;
71104;SDS011;58760;48.716;8.962;2023-11-19T11:49:03;3.22;;;0.60;;
71104;SDS011;58760;48.716;8.962;2023-11-19T11:52:12;2.45;;;0.50;;
71104;SDS011;58760;48.716;8.962;2023-11-19T11:59:55;1.10;;;0.43;;
71104;SDS011;58760;48.716;8.962;2023-11-19T12:02:21;2.55;;;0.52;;
71104;SDS011;58760;48.716;8.962;2023-11-19T12:04:50;1.10;;;0.30;;
71104;SDS011;58760;48.716;8.962;2023-11-19T12:07:21;2.78;;;0.43;;
71104;SDS011;58760;48.716;8.962;2023-11-19T12:09:48;2.10;;;0.45;;
71104;SDS011;58760;48.716;8.962;2023-11-19T12:12:21;1.20;;;0.20;;
71104;SDS011;58760;48.716;8.962;2023-11-19T12:19:59;3.25;;;0.55;;
71104;SDS011;58760;48.716;8.962;2023-11-19T12:22:30;1.95;;;0.50;;
71104;SDS011;58760;48.716;8.962;2023-11-19T12:24:56;2.30;;;0.57;;
71104;SDS011;58760;48.716;8.962;2023-11-19T12:27:22;1.27;;;0.30;;
71104;SDS011;58760;48.716;8.962;2023-11-19T12:29:48;1.42;;;0.50;;
71104;SDS011;58760;48.716;8.962;2023-11-19T12:32:14;3.30;;;0.60;;
71104;SDS011;58760;48.716;8.962;2023-11-19T12:34:39;1.52;;;0.43;;
71104;SDS011;58760;48.716;8.962;2023-11-19T12:37:09;2.35;;;0.40;;
71104;SDS011;58760;48.716;8.962;2023-11-19T12:39:35;1.70;;;0.50;;
71104;SDS011;58760;48.716;8.962;2023-11-19T12:42:00;1.52;;;0.40;;
71104;SDS011;58760;48.716;8.962;2023-11-19T12:44:26;2.05;;;0.50;;
71104;SDS011;58760;48.716;8.962;2023-11-19T12:47:05;3.92;;;0.45;;
71104;SDS011;58760;48.716;8.962;2023-11-19T12:49:35;2.30;;;0.43;;
71104;SDS011;58760;48.716;8.962;2023-11-19T12:52:01;2.17;;;0.50;;
71104;SDS011;58760;48.716;8.962;2023-11-19T12:54:36;1.30;;;0.40;;
71104;SDS011;58760;48.716;8.962;2023-11-19T12:57:02;3.20;;;0.60;;
71104;SDS011;58760;48.716;8.962;2023-11-19T12:59:30;1.77;;;0.52;;
71104;SDS011;58760;48.716;8.962;2023-11-19T13:04:28;2.15;;;0.63;;
71104;SDS011;58760;48.716;8.962;2023-11-19T13:06:55;1.63;;;0.43;;
71104;SDS011;58760;48.716;8.962;2023-11-19T13:09:28;1.10;;;0.40;;
71104;SDS011;58760;48.716;8.962;2023-11-19T13:11:54;2.28;;;0.55;;
71104;SDS011;58760;48.716;8.962;2023-11-19T13:14:21;2.55;;;0.50;;
71104;SDS011;58760;48.716;8.962;2023-11-19T13:16:47;1.58;;;0.50;;
71104;SDS011;58760;48.716;8.962;2023-11-19T13:19:13;0.90;;;0.50;;
71104;SDS011;58760;48.716;8.962;2023-11-19T13:21:39;2.85;;;0.60;;
71104;SDS011;58760;48.716;8.962;2023-11-19T13:24:06;2.25;;;0.68;;
71104;SDS011;58760;48.716;8.962;2023-11-19T13:26:32;1.80;;;0.50;;
71104;SDS011;58760;48.716;8.962;2023-11-19T13:29:01;1.27;;;0.35;;
71104;SDS011;58760;48.716;8.962;2023-11-19T13:31:30;2.20;;;0.60;;
71104;SDS011;58760;48.716;8.962;2023-11-19T13:33:59;2.03;;;0.55;;
71104;SDS011;58760;48.716;8.962;2023-11-19T13:36:25;1.10;;;0.35;;
71104;SDS011;58760;48.716;8.962;2023-11-19T13:38:51;1.88;;;0.30;;
71104;SDS011;58760;48.716;8.962;2023-11-19T13:41:16;2.72;;;0.52;;
71104;SDS011;58760;48.716;8.962;2023-11-19T13:43:42;3.38;;;0.65;;
71104;SDS011;58760;48.716;8.962;2023-11-19T13:46:08;1.20;;;0.50;;
71104;SDS011;58760;48.716;8.962;2023-11-19T13:48:36;2.13;;;0.70;;
71104;SDS011;58760;48.716;8.962;2023-11-19T13:51:01;2.05;;;0.50;;
71104;SDS011;58760;48.716;8.962;2023-11-19T13:53:27;3.45;;;0.70;;
71104;SDS011;58760;48.716;8.962;2023-11-19T13:55:52;1.50;;;0.38;;
71104;SDS011;58760;48.716;8.962;2023-11-19T13:58:18;1.65;;;0.52;;
71104;SDS011;58760;48.716;8.962;2023-11-19T14:00:44;3.97;;;0.60;;
71104;SDS011;58760;48.716;8.962;2023-11-19T14:03:09;1.98;;;0.65;;
71104;SDS011;58760;48.716;8.962;2023-11-19T14:05:38;0.68;;;0.32;;
71104;SDS011;58760;48.716;8.962;2023-11-19T14:08:06;2.70;;;0.60;;
71104;SDS011;58760;48.716;8.962;2023-11-19T14:10:40;0.82;;;0.35;;
71104;SDS011;58760;48.716;8.962;2023-11-19T14:13:06;2.58;;;0.77;;
71104;SDS011;58760;48.716;8.962;2023-11-19T14:15:34;3.03;;;0.80;;
71104;SDS011;58760;48.716;8.962;2023-11-19T14:18:01;2.65;;;0.68;;
71104;SDS011;58760;48.716;8.962;2023-11-19T14:22:55;4.30;;;0.43;;
71104;SDS011;58760;48.716;8.962;2023-11-19T14:25:21;4.07;;;0.60;;
71104;SDS011;58760;48.716;8.962;2023-11-19T14:27:48;2.53;;;0.40;;
71104;SDS011;58760;48.716;8.962;2023-11-19T14:30:14;3.20;;;0.70;;
71104;SDS011;58760;48.716;8.962;2023-11-19T14:32:40;2.42;;;0.60;;
71104;SDS011;58760;48.716;8.962;2023-11-19T14:35:09;2.85;;;0.40;;
71104;SDS011;58760;48.716;8.962;2023-11-19T14:37:35;2.47;;;0.43;;
71104;SDS011;58760;48.716;8.962;2023-11-19T14:40:04;1.33;;;0.40;;
71104;SDS011;58760;48.716;8.962;2023-11-19T14:42:31;3.03;;;0.77;;
71104;SDS011;58760;48.716;8.962;2023-11-19T14:44:57;4.13;;;0.45;;
71104;SDS011;58760;48.716;8.962;2023-11-19T14:47:23;1.88;;;0.90;;
71104;SDS011;58760;48.716;8.962;2023-11-19T14:49:49;0.60;;;0.40;;
71104;SDS011;58760;48.716;8.962;2023-11-19T14:52:15;1.63;;;0.50;;
71104;SDS011;58760;48.716;8.962;2023-11-19T14:54:43;1.83;;;0.43;;
71104;SDS011;58760;48.716;8.962;2023-11-19T14:57:09;1.10;;;0.50;;
71104;SDS011;58760;48.716;8.962;2023-11-19T14:59:35;2.20;;;0.32;;
71104;SDS011;58760;48.716;8.962;2023-11-19T15:02:01;2.85;;;0.60;;
71104;SDS011;58760;48.716;8.962;2023-11-19T15:04:28;2.20;;;0.60;;
71104;SDS011;58760;48.716;8.962;2023-11-19T15:06:56;2.65;;;0.45;;
71104;SDS011;58760;48.716;8.962;2023-11-19T15:09:22;3.00;;;0.43;;
71104;SDS011;58760;48.716;8.962;2023-11-19T15:11:47;1.85;;;0.50;;
71104;SDS011;58760;48.716;8.962;2023-11-19T15:14:13;1.38;;;0.47;;
71104;SDS011;58760;48.716;8.962;2023-11-19T15:16:44;1.23;;;0.45;;
71104;SDS011;58760;48.716;8.962;2023-11-19T15:19:11;0.57;;;0.45;;
71104;SDS011;58760;48.716;8.962;2023-11-19T15:21:37;1.90;;;0.70;;
71104;SDS011;58760;48.716;8.962;2023-11-19T15:24:03;1.33;;;0.40;;
71104;SDS011;58760;48.716;8.962;2023-11-19T15:26:33;1.63;;;0.45;;
71104;SDS011;58760;48.716;8.962;2023-11-19T15:31:24;2.90;;;0.60;;
71104;SDS011;58760;48.716;8.962;2023-11-19T15:33:50;1.67;;;0.60;;